Time;durP1;ratioP1;P1;durP2;ratioP2;P2;SDS_P1;SDS_P2;PMS_P1;PMS_P2;Temp;Humidity;BMP_temperature;BMP_pressure;BME280_temperature;BME280_humidity;BME280_pressure;Samples;Min_cycle;Max_cycle;Signal;HPM_P1;HPM_P2
2021/12/26 00:01:16;;;;;;;10.97;8.87;;;3.90;99.90;;;;;;6245706;23;20207;-86
2021/12/26 00:03:43;;;;;;;11.87;9.10;;;3.90;99.90;;;;;;6244257;22;20193;-87
2021/12/26 00:06:15;;;;;;;11.67;9.30;;;3.90;99.90;;;;;;6246702;23;20663;-87
2021/12/26 00:08:44;;;;;;;11.93;9.20;;;4.00;99.90;;;;;;6244885;22;20197;-86
2021/12/26 00:11:12;;;;;;;15.63;9.73;;;3.90;99.90;;;;;;6245532;23;20179;-87
2021/12/26 00:13:40;;;;;;;23.20;9.33;;;3.90;99.90;;;;;;6244447;22;20193;-87
2021/12/26 00:16:08;;;;;;;12.13;9.13;;;3.90;99.90;;;;;;6245083;23;20278;-86
2021/12/26 00:18:36;;;;;;;19.87;9.60;;;3.80;99.90;;;;;;6245962;22;20227;-86
2021/12/26 00:21:03;;;;;;;14.47;10.30;;;3.80;99.90;;;;;;6245178;23;20276;-86
2021/12/26 00:23:31;;;;;;;16.73;9.63;;;3.70;99.90;;;;;;6243987;22;20200;-86
2021/12/26 00:25:58;;;;;;;13.63;9.40;;;3.70;99.90;;;;;;6244856;23;20652;-87
2021/12/26 00:28:26;;;;;;;13.63;10.00;;;3.70;99.90;;;;;;6244281;22;20515;-86
2021/12/26 00:30:54;;;;;;;13.67;9.97;;;3.70;99.90;;;;;;6244932;23;20395;-87
2021/12/26 00:33:21;;;;;;;13.93;9.47;;;3.70;99.90;;;;;;6245587;22;20197;-87
2021/12/26 00:35:49;;;;;;;15.10;9.80;;;3.70;99.90;;;;;;6246324;23;20169;-88
2021/12/26 00:38:16;;;;;;;14.63;9.60;;;3.70;99.90;;;;;;6246005;22;20203;-86
2021/12/26 00:40:43;;;;;;;16.67;10.37;;;3.70;99.90;;;;;;6246193;23;20165;-86
2021/12/26 00:43:11;;;;;;;18.20;10.30;;;3.70;99.90;;;;;;6246900;22;20696;-86
2021/12/26 00:45:41;;;;;;;18.20;9.83;;;3.70;99.90;;;;;;6247593;23;20510;-86
2021/12/26 00:48:08;;;;;;;15.37;10.97;;;3.70;99.90;;;;;;6248010;22;20279;-85
2021/12/26 00:50:37;;;;;;;16.93;10.60;;;3.80;99.90;;;;;;6247081;23;20176;-85
2021/12/26 00:53:05;;;;;;;13.67;10.13;;;3.80;99.90;;;;;;6245721;22;20560;-87
2021/12/26 00:55:32;;;;;;;14.87;10.90;;;3.70;99.90;;;;;;6246065;23;20173;-86
2021/12/26 00:58:00;;;;;;;19.47;10.93;;;3.70;99.90;;;;;;6246065;22;20199;-86
2021/12/26 01:00:30;;;;;;;14.83;10.40;;;3.80;99.90;;;;;;6246761;23;20472;-86
2021/12/26 01:03:01;;;;;;;18.50;9.87;;;3.80;99.90;;;;;;6248242;22;20205;-86
2021/12/26 01:05:30;;;;;;;23.10;11.43;;;3.80;99.90;;;;;;6222509;23;20494;-86
2021/12/26 01:07:59;;;;;;;14.07;11.17;;;3.80;99.90;;;;;;6249996;22;20220;-86
2021/12/26 01:10:29;;;;;;;16.43;10.53;;;3.90;99.90;;;;;;6249814;23;20259;-85
2021/12/26 01:12:56;;;;;;;14.33;11.40;;;3.80;99.90;;;;;;6248876;22;20232;-85
2021/12/26 01:15:24;;;;;;;19.33;11.23;;;3.90;99.90;;;;;;6249574;23;20180;-85
2021/12/26 01:17:57;;;;;;;29.37;12.07;;;3.80;99.90;;;;;;6248941;22;20205;-85
2021/12/26 01:20:41;;;;;;;26.93;12.20;;;3.80;99.90;;;;;;6250448;23;20188;-85
2021/12/26 01:23:10;;;;;;;17.83;12.13;;;3.80;99.90;;;;;;6249878;22;20201;-86
2021/12/26 01:25:37;;;;;;;25.27;12.47;;;3.70;99.90;;;;;;6250734;23;20511;-85
2021/12/26 01:28:05;;;;;;;24.43;11.93;;;3.80;99.90;;;;;;6251430;22;20197;-85
2021/12/26 01:30:33;;;;;;;29.83;12.70;;;3.80;99.90;;;;;;6258953;23;20210;-89
2021/12/26 01:33:00;;;;;;;27.07;12.70;;;3.80;99.90;;;;;;6268088;22;20197;-89
2021/12/26 01:35:28;;;;;;;14.77;11.53;;;3.80;99.90;;;;;;6248206;23;20183;-86
2021/12/26 01:37:55;;;;;;;16.67;12.70;;;3.80;99.90;;;;;;6245197;22;20197;-85
2021/12/26 01:40:22;;;;;;;17.83;11.83;;;3.80;99.90;;;;;;6245504;23;20227;-86
2021/12/26 01:42:50;;;;;;;22.40;12.27;;;3.80;99.90;;;;;;6244841;22;20201;-86
2021/12/26 01:45:17;;;;;;;20.00;13.03;;;3.80;99.90;;;;;;6245443;23;20220;-86
2021/12/26 01:47:46;;;;;;;21.67;12.70;;;3.80;99.90;;;;;;6245116;22;20275;-85
2021/12/26 01:50:14;;;;;;;18.87;11.00;;;3.80;99.90;;;;;;6219067;23;20171;-86
2021/12/26 01:52:42;;;;;;;18.60;11.13;;;3.80;99.90;;;;;;6244058;22;20243;-85
2021/12/26 01:55:23;;;;;;;16.30;10.70;;;3.90;99.90;;;;;;6243852;23;20280;-86
2021/12/26 01:57:52;;;;;;;13.90;10.10;;;3.90;99.90;;;;;;6243799;22;20532;-85
2021/12/26 02:00:21;;;;;;;15.43;9.70;;;4.00;99.90;;;;;;6245394;23;20169;-86
2021/12/26 02:02:49;;;;;;;16.50;9.90;;;4.00;99.90;;;;;;6243639;22;20272;-88
2021/12/26 02:05:17;;;;;;;12.37;9.23;;;3.90;99.90;;;;;;6243759;23;20175;-87
2021/12/26 02:07:46;;;;;;;10.50;8.83;;;3.90;99.90;;;;;;6245466;22;20272;-86
2021/12/26 02:10:13;;;;;;;19.50;9.77;;;4.00;99.90;;;;;;6245161;23;20208;-86
2021/12/26 02:12:41;;;;;;;14.03;9.33;;;3.90;99.90;;;;;;6244304;22;20520;-86
2021/12/26 02:15:09;;;;;;;15.20;9.80;;;4.00;99.90;;;;;;6243832;23;20259;-87
2021/12/26 02:17:37;;;;;;;12.60;8.83;;;4.00;99.90;;;;;;6243218;22;20658;-87
2021/12/26 02:20:28;;;;;;;14.00;9.80;;;3.90;99.90;;;;;;6243977;23;20173;-86
2021/12/26 02:23:00;;;;;;;15.07;9.97;;;4.00;99.90;;;;;;6243306;22;20264;-86
2021/12/26 02:27:30;;;;;;;12.63;9.90;;;4.00;99.90;;;;;;6243527;23;20154;-86
2021/12/26 02:28:20;;;;;;;13.20;9.80;;;4.00;99.90;;;;;;6243586;22;20251;-88
2021/12/26 02:30:48;;;;;;;13.10;10.50;;;3.90;99.90;;;;;;6245311;23;20223;-86
2021/12/26 02:33:18;;;;;;;18.17;10.93;;;3.90;99.90;;;;;;6244578;22;20203;-86
2021/12/26 02:35:47;;;;;;;15.57;10.57;;;3.90;99.90;;;;;;6244802;23;20590;-85
2021/12/26 02:38:15;;;;;;;14.30;10.77;;;3.90;99.90;;;;;;6218015;23;20197;-86
2021/12/26 02:40:43;;;;;;;14.97;11.00;;;3.90;99.90;;;;;;6244348;23;20227;-86
2021/12/26 02:43:13;;;;;;;21.67;10.60;;;3.90;99.90;;;;;;6245321;22;20211;-85
2021/12/26 02:45:40;;;;;;;12.97;10.30;;;3.90;99.90;;;;;;6244825;23;20172;-87
2021/12/26 02:48:09;;;;;;;14.63;10.77;;;3.90;99.90;;;;;;6243499;22;20196;-86
2021/12/26 02:50:38;;;;;;;16.93;11.07;;;3.90;99.90;;;;;;6217885;23;20173;-85
2021/12/26 02:53:09;;;;;;;19.77;11.50;;;3.80;99.90;;;;;;6216834;23;20243;-85
2021/12/26 02:55:36;;;;;;;13.60;10.53;;;3.80;99.90;;;;;;6243680;23;20613;-86
2021/12/26 02:58:06;;;;;;;13.43;10.60;;;3.90;99.90;;;;;;6243239;22;20199;-87
2021/12/26 03:00:40;;;;;;;17.57;11.27;;;3.80;99.90;;;;;;6243947;23;20169;-86
2021/12/26 03:03:08;;;;;;;16.23;11.17;;;3.90;99.90;;;;;;6244230;22;20262;-88
2021/12/26 03:05:38;;;;;;;15.87;11.10;;;3.80;99.90;;;;;;6243913;23;20169;-86
2021/12/26 03:08:09;;;;;;;15.63;11.27;;;3.80;99.90;;;;;;6243379;22;20645;-86
2021/12/26 03:10:36;;;;;;;13.43;10.27;;;3.80;99.90;;;;;;6217256;23;20177;-87
2021/12/26 03:13:06;;;;;;;18.33;11.30;;;3.80;99.90;;;;;;6242944;22;20284;-85
2021/12/26 03:15:34;;;;;;;16.40;11.83;;;3.70;99.90;;;;;;6243699;23;20165;-83
2021/12/26 03:18:02;;;;;;;16.13;11.93;;;3.60;99.90;;;;;;6246927;22;20200;-85
2021/12/26 03:20:32;;;;;;;15.20;11.70;;;3.60;99.90;;;;;;6246105;23;20174;-88
2021/12/26 03:23:00;;;;;;;16.07;11.70;;;3.70;99.90;;;;;;6245541;22;20259;-86
2021/12/26 03:25:32;;;;;;;14.43;11.07;;;3.80;99.90;;;;;;6246308;23;20169;-87
2021/12/26 03:27:59;;;;;;;15.13;10.83;;;3.90;99.90;;;;;;6245201;22;20201;-86
2021/12/26 03:30:29;;;;;;;16.77;11.03;;;4.00;99.90;;;;;;6245825;23;20165;-86
2021/12/26 03:32:57;;;;;;;14.40;10.40;;;4.00;99.90;;;;;;6245626;22;20193;-88
2021/12/26 03:35:26;;;;;;;15.27;10.43;;;4.00;99.90;;;;;;6248702;23;20175;-87
2021/12/26 03:37:55;;;;;;;15.47;11.37;;;4.00;99.90;;;;;;6248357;22;20656;-86
2021/12/26 03:40:23;;;;;;;17.23;11.63;;;3.90;99.90;;;;;;6249013;23;20170;-85
2021/12/26 03:42:53;;;;;;;13.93;10.90;;;3.90;99.90;;;;;;6221968;23;20208;-87
2021/12/26 03:45:21;;;;;;;14.60;10.63;;;3.90;99.90;;;;;;6249631;23;20208;-85
2021/12/26 03:47:50;;;;;;;15.30;11.03;;;3.90;99.90;;;;;;6249704;22;20197;-85
2021/12/26 03:50:19;;;;;;;14.83;10.97;;;3.80;99.90;;;;;;6249987;23;20180;-86
2021/12/26 03:52:46;;;;;;;16.83;12.03;;;3.80;99.90;;;;;;6250309;22;20201;-88
2021/12/26 03:55:22;;;;;;;18.63;13.73;;;3.80;99.90;;;;;;6250883;23;20165;-85
2021/12/26 03:57:51;;;;;;;14.97;11.70;;;3.90;99.90;;;;;;6251038;22;20208;-85
2021/12/26 04:00:18;;;;;;;15.20;10.87;;;3.80;99.90;;;;;;6251614;23;20169;-87
2021/12/26 04:02:46;;;;;;;15.80;11.27;;;3.90;99.90;;;;;;6252313;22;20192;-89
2021/12/26 04:05:14;;;;;;;14.63;11.53;;;3.90;99.90;;;;;;6266883;23;20192;-88
2021/12/26 04:07:43;;;;;;;14.73;10.93;;;3.80;99.90;;;;;;6252575;22;20201;-87
2021/12/26 04:10:11;;;;;;;18.00;12.03;;;3.90;99.90;;;;;;6245171;23;20566;-86
2021/12/26 04:12:43;;;;;;;15.63;11.60;;;3.90;99.90;;;;;;6244424;22;20276;-87
2021/12/26 04:15:14;;;;;;;15.33;11.40;;;3.90;99.90;;;;;;6244819;23;20158;-87
2021/12/26 04:17:41;;;;;;;16.27;11.23;;;3.90;99.90;;;;;;6244280;22;20208;-87
2021/12/26 04:20:09;;;;;;;16.07;11.40;;;3.90;99.90;;;;;;6245038;23;20172;-88
2021/12/26 04:22:37;;;;;;;15.90;11.50;;;3.90;99.90;;;;;;6217240;23;20204;-87
2021/12/26 04:25:05;;;;;;;15.53;10.63;;;3.90;99.90;;;;;;6244028;23;20171;-88
2021/12/26 04:27:32;;;;;;;14.57;11.00;;;3.90;99.90;;;;;;6243795;22;20674;-86
2021/12/26 04:30:00;;;;;;;14.57;10.83;;;3.90;99.90;;;;;;6244848;23;20169;-87
2021/12/26 04:32:28;;;;;;;14.40;10.37;;;4.00;99.90;;;;;;6244573;22;20197;-87
2021/12/26 04:34:56;;;;;;;12.67;9.10;;;3.90;99.90;;;;;;6244635;23;20180;-87
2021/12/26 04:37:23;;;;;;;12.47;9.47;;;3.90;99.90;;;;;;6244590;22;20274;-84
2021/12/26 04:39:50;;;;;;;11.27;8.87;;;3.90;99.40;;;;;;6218227;23;20201;-84
2021/12/26 04:42:17;;;;;;;12.20;9.53;;;3.80;99.90;;;;;;6244053;22;20676;-86
2021/12/26 04:44:44;;;;;;;11.80;8.87;;;3.80;99.80;;;;;;6244489;23;20252;-84
2021/12/26 04:47:11;;;;;;;10.63;8.53;;;3.80;99.90;;;;;;6244549;22;20203;-87
2021/12/26 04:49:39;;;;;;;10.73;8.63;;;3.90;99.90;;;;;;6245257;23;20166;-86
2021/12/26 04:52:07;;;;;;;10.60;8.57;;;4.00;99.90;;;;;;6244954;22;20207;-87
2021/12/26 04:54:34;;;;;;;11.90;9.07;;;4.00;99.80;;;;;;6245319;23;20172;-87
2021/12/26 04:57:01;;;;;;;12.80;9.77;;;4.10;99.60;;;;;;6244617;22;20197;-87
2021/12/26 04:59:28;;;;;;;12.70;9.67;;;4.00;99.50;;;;;;6244960;23;20179;-87
2021/12/26 05:01:55;;;;;;;12.63;9.80;;;3.90;99.50;;;;;;6244394;22;20197;-86
2021/12/26 05:04:22;;;;;;;12.77;9.60;;;3.80;99.50;;;;;;6245319;23;20621;-88
2021/12/26 05:06:51;;;;;;;13.60;9.73;;;3.70;99.90;;;;;;6244696;22;20292;-88
2021/12/26 05:09:18;;;;;;;12.37;9.50;;;3.70;99.90;;;;;;6247433;23;20175;-88
2021/12/26 05:11:45;;;;;;;12.50;9.33;;;3.70;99.90;;;;;;6248103;22;20208;-85
2021/12/26 05:14:12;;;;;;;11.57;9.03;;;3.80;99.70;;;;;;6248504;23;20173;-85
2021/12/26 05:16:39;;;;;;;10.27;8.57;;;3.80;99.40;;;;;;6248679;22;20489;-85
2021/12/26 05:19:06;;;;;;;10.83;8.90;;;3.80;99.50;;;;;;6222003;23;20228;-86
2021/12/26 05:21:33;;;;;;;12.67;8.97;;;3.80;99.50;;;;;;6249055;22;20185;-85
2021/12/26 05:24:02;;;;;;;11.50;8.33;;;3.80;99.20;;;;;;6248754;23;20534;-85
2021/12/26 05:26:29;;;;;;;10.93;8.50;;;3.70;99.10;;;;;;6249130;22;20193;-85
2021/12/26 05:28:56;;;;;;;11.03;9.00;;;3.70;99.20;;;;;;6249733;23;20165;-85
2021/12/26 05:31:23;;;;;;;11.60;8.93;;;3.90;99.40;;;;;;6248906;23;20169;-85
2021/12/26 05:33:50;;;;;;;11.40;8.87;;;3.90;99.10;;;;;;6248089;22;20207;-87
2021/12/26 05:36:17;;;;;;;10.87;8.80;;;3.90;99.00;;;;;;6249186;23;20176;-85
2021/12/26 05:38:44;;;;;;;10.23;8.23;;;3.80;98.30;;;;;;6248471;22;20217;-84
2021/12/26 05:41:13;;;;;;;11.93;8.93;;;3.70;98.50;;;;;;6248948;23;20175;-86
2021/12/26 05:43:40;;;;;;;11.10;8.87;;;3.60;98.70;;;;;;6249018;23;20200;-83
2021/12/26 05:46:07;;;;;;;9.53;8.00;;;3.60;98.90;;;;;;6249682;23;20173;-84
2021/12/26 05:48:35;;;;;;;11.67;8.73;;;3.50;98.50;;;;;;6249090;22;20197;-85
2021/12/26 05:51:02;;;;;;;10.90;8.63;;;3.50;99.00;;;;;;6250125;23;20166;-84
2021/12/26 05:53:29;;;;;;;12.90;9.20;;;3.40;99.10;;;;;;6249119;22;20276;-84
2021/12/26 05:55:56;;;;;;;10.73;8.30;;;3.30;99.20;;;;;;6197831;23;20179;-84
2021/12/26 05:58:24;;;;;;;12.90;9.37;;;3.30;99.40;;;;;;6249468;22;20204;-83
2021/12/26 06:00:51;;;;;;;11.63;8.70;;;3.30;99.30;;;;;;6249241;23;20170;-83
2021/12/26 06:03:19;;;;;;;12.37;8.60;;;3.30;99.10;;;;;;6249175;22;20211;-85
2021/12/26 06:05:46;;;;;;;12.03;8.80;;;3.20;99.30;;;;;;6223287;23;20476;-83
2021/12/26 06:08:13;;;;;;;12.00;9.53;;;3.30;99.20;;;;;;6248715;22;20205;-84
2021/12/26 06:10:40;;;;;;;12.07;9.23;;;3.40;99.00;;;;;;6249265;23;20639;-84
2021/12/26 06:13:07;;;;;;;13.43;9.33;;;3.40;99.10;;;;;;6248905;22;20211;-84
2021/12/26 06:15:36;;;;;;;13.70;10.17;;;3.40;99.10;;;;;;6250018;23;20611;-85
2021/12/26 06:18:03;;;;;;;11.77;9.33;;;3.50;99.20;;;;;;6249511;22;20200;-85
2021/12/26 06:20:30;;;;;;;13.37;9.67;;;3.50;99.10;;;;;;6250800;23;20481;-84
2021/12/26 06:22:57;;;;;;;14.63;9.60;;;3.50;99.10;;;;;;6248928;22;20276;-84
2021/12/26 06:25:24;;;;;;;11.47;8.80;;;3.60;99.00;;;;;;6250214;23;20175;-84
2021/12/26 06:27:51;;;;;;;11.90;9.33;;;3.60;98.70;;;;;;6250485;22;20276;-87
2021/12/26 06:30:18;;;;;;;11.87;9.27;;;3.60;98.80;;;;;;6250007;23;20165;-86
2021/12/26 06:32:47;;;;;;;12.97;9.93;;;3.70;98.70;;;;;;6250155;22;20201;-84
2021/12/26 06:35:15;;;;;;;12.93;9.57;;;3.70;98.60;;;;;;6251436;23;20169;-86
2021/12/26 06:37:43;;;;;;;12.50;9.60;;;3.60;98.40;;;;;;6265610;22;20224;-87
2021/12/26 06:40:12;;;;;;;13.13;9.80;;;3.60;98.50;;;;;;6250378;23;20228;-84
2021/12/26 06:42:42;;;;;;;14.87;9.63;;;3.60;98.60;;;;;;6245247;22;20209;-83
2021/12/26 06:45:10;;;;;;;14.70;10.07;;;3.50;98.40;;;;;;6243132;23;20181;-87
2021/12/26 06:47:37;;;;;;;13.93;10.00;;;3.50;98.70;;;;;;6242837;22;20212;-86
2021/12/26 06:50:07;;;;;;;12.33;9.33;;;3.50;98.60;;;;;;6243926;23;20175;-87
2021/12/26 06:52:34;;;;;;;12.33;9.27;;;3.40;98.70;;;;;;6244916;22;20193;-87
2021/12/26 06:55:03;;;;;;;13.77;9.90;;;3.50;99.00;;;;;;6245075;23;20165;-87
2021/12/26 06:57:30;;;;;;;14.17;9.63;;;3.60;98.60;;;;;;6244968;22;20201;-87
2021/12/26 06:59:57;;;;;;;13.10;9.20;;;3.50;98.70;;;;;;6246007;23;20256;-88
2021/12/26 07:02:24;;;;;;;12.47;9.23;;;3.50;98.90;;;;;;6245181;22;20511;-87
2021/12/26 07:04:51;;;;;;;13.67;9.87;;;3.40;98.90;;;;;;6245513;23;20538;-87
2021/12/26 07:07:20;;;;;;;10.67;8.57;;;3.50;99.00;;;;;;6245519;22;20514;-88
2021/12/26 07:09:47;;;;;;;10.70;8.40;;;3.50;98.90;;;;;;6246310;23;20176;-89
2021/12/26 07:12:15;;;;;;;10.37;8.23;;;3.50;98.60;;;;;;6238967;22;20236;-87
2021/12/26 07:14:42;;;;;;;12.80;9.40;;;3.50;98.40;;;;;;6245090;23;20169;-87
2021/12/26 07:17:10;;;;;;;10.83;8.50;;;3.50;98.40;;;;;;6244915;22;20209;-88
2021/12/26 07:19:37;;;;;;;11.73;8.47;;;3.50;98.40;;;;;;6245551;23;20243;-87
2021/12/26 07:22:05;;;;;;;10.83;8.43;;;3.60;98.10;;;;;;6244876;22;20520;-87
2021/12/26 07:24:33;;;;;;;11.77;8.40;;;3.60;97.80;;;;;;6245005;23;20169;-86
2021/12/26 07:27:01;;;;;;;11.37;8.30;;;3.40;98.00;;;;;;6244755;22;20193;-86
2021/12/26 07:29:28;;;;;;;12.47;8.90;;;3.40;98.20;;;;;;6218930;23;20166;-86
2021/12/26 07:31:55;;;;;;;11.47;8.60;;;3.40;98.30;;;;;;6245076;22;20633;-86
2021/12/26 07:34:22;;;;;;;13.43;9.13;;;3.40;98.60;;;;;;6245783;23;20170;-85
2021/12/26 07:36:49;;;;;;;12.67;8.83;;;3.60;98.50;;;;;;6245636;22;20699;-86
2021/12/26 07:39:15;;;;;;;11.47;8.80;;;3.50;98.10;;;;;;6245749;23;20179;-86
2021/12/26 07:41:44;;;;;;;11.90;8.77;;;3.50;98.40;;;;;;6245636;22;20598;-87
2021/12/26 07:44:12;;;;;;;10.63;8.40;;;3.50;98.30;;;;;;6245439;23;20601;-86
2021/12/26 07:46:40;;;;;;;11.23;9.27;;;3.60;98.30;;;;;;6246400;22;20177;-88
2021/12/26 07:49:07;;;;;;;61.47;40.40;;;3.60;98.00;;;;;;6246465;23;20193;-86
2021/12/26 07:51:36;;;;;;;11.33;8.43;;;3.60;98.10;;;;;;6246572;22;20171;-85
2021/12/26 07:54:04;;;;;;;11.30;8.47;;;3.50;98.20;;;;;;6246925;23;20208;-85
2021/12/26 07:56:31;;;;;;;11.73;8.70;;;3.50;98.30;;;;;;6247312;22;20232;-87
2021/12/26 07:59:02;;;;;;;11.37;8.63;;;3.60;98.40;;;;;;6246406;23;20169;-86
2021/12/26 08:01:29;;;;;;;10.60;8.30;;;3.60;98.00;;;;;;6246995;22;20175;-86
2021/12/26 08:03:57;;;;;;;10.60;8.53;;;3.50;98.10;;;;;;6248004;23;20263;-85
2021/12/26 08:06:25;;;;;;;16.97;9.07;;;3.50;98.00;;;;;;6249282;23;20169;-85
2021/12/26 08:08:53;;;;;;;13.23;9.20;;;3.60;98.10;;;;;;6247800;22;20276;-85
2021/12/26 08:11:20;;;;;;;10.80;8.53;;;3.50;98.10;;;;;;6248443;23;20252;-87
2021/12/26 08:13:47;;;;;;;12.03;8.70;;;3.60;98.00;;;;;;6246419;22;20284;-88
2021/12/26 08:16:16;;;;;;;10.97;8.47;;;3.50;98.20;;;;;;6247518;23;20193;-86
2021/12/26 08:18:43;;;;;;;11.43;9.00;;;3.70;97.90;;;;;;6223961;23;20199;-85
2021/12/26 08:21:10;;;;;;;11.13;8.33;;;3.70;97.80;;;;;;6249139;23;20629;-86
2021/12/26 08:23:38;;;;;;;11.03;8.70;;;3.70;97.90;;;;;;6248669;22;20702;-86
2021/12/26 08:26:05;;;;;;;11.10;8.90;;;3.80;97.50;;;;;;6250589;23;20617;-85
2021/12/26 08:28:32;;;;;;;10.17;8.30;;;3.90;97.40;;;;;;6249657;22;20205;-84
2021/12/26 08:31:00;;;;;;;11.93;8.70;;;3.90;97.10;;;;;;6251776;23;20197;-85
2021/12/26 08:33:29;;;;;;;11.57;9.03;;;3.90;97.00;;;;;;6250148;22;20197;-86
2021/12/26 08:35:56;;;;;;;10.47;8.07;;;3.90;97.00;;;;;;6223696;23;20241;-85
2021/12/26 08:38:23;;;;;;;10.77;8.57;;;4.00;97.00;;;;;;6250034;22;20193;-85
2021/12/26 08:40:51;;;;;;;10.33;8.80;;;3.90;96.80;;;;;;6250763;23;20208;-85
2021/12/26 08:43:19;;;;;;;11.33;8.70;;;4.10;96.90;;;;;;6250669;22;20201;-84
2021/12/26 08:45:48;;;;;;;11.53;8.73;;;4.10;96.80;;;;;;6221490;23;20173;-85
2021/12/26 08:48:16;;;;;;;11.70;8.83;;;3.90;96.70;;;;;;6247976;22;20201;-84
2021/12/26 08:50:45;;;;;;;10.40;8.53;;;4.00;97.00;;;;;;6249739;23;20252;-84
2021/12/26 08:53:12;;;;;;;9.93;8.23;;;4.10;96.80;;;;;;6221449;23;20201;-87
2021/12/26 08:55:40;;;;;;;10.10;8.27;;;4.10;96.70;;;;;;6250372;23;20199;-87
2021/12/26 08:58:07;;;;;;;10.50;8.10;;;4.10;96.80;;;;;;6257807;22;20241;-89
2021/12/26 09:00:35;;;;;;;9.93;7.40;;;4.20;97.00;;;;;;6262338;23;20216;-88
2021/12/26 09:03:02;;;;;;;10.97;8.60;;;4.10;96.90;;;;;;6245936;22;20203;-87
2021/12/26 09:05:30;;;;;;;10.33;7.83;;;4.10;97.30;;;;;;6246188;23;20165;-85
2021/12/26 09:07:58;;;;;;;10.17;7.97;;;4.00;97.50;;;;;;6245464;22;20208;-86
2021/12/26 09:10:25;;;;;;;10.73;8.00;;;4.20;97.60;;;;;;6245912;23;20605;-86
2021/12/26 09:12:52;;;;;;;9.23;7.57;;;4.20;97.50;;;;;;6246002;22;20197;-87
2021/12/26 09:15:20;;;;;;;10.93;7.17;;;4.10;97.20;;;;;;6246244;23;20478;-86
2021/12/26 09:17:49;;;;;;;11.40;8.30;;;4.20;97.50;;;;;;6245488;22;20207;-85
2021/12/26 09:20:17;;;;;;;9.77;7.87;;;4.20;97.20;;;;;;6245356;23;20180;-85
2021/12/26 09:22:44;;;;;;;9.23;7.43;;;4.20;97.50;;;;;;6244623;22;20193;-87
2021/12/26 09:25:13;;;;;;;10.40;7.77;;;4.10;97.30;;;;;;6246307;23;20628;-88
2021/12/26 09:27:40;;;;;;;9.03;7.50;;;3.90;97.40;;;;;;6246007;22;20208;-86
2021/12/26 09:30:08;;;;;;;9.20;7.30;;;3.90;97.70;;;;;;6247340;23;20196;-83
2021/12/26 09:32:36;;;;;;;8.40;7.50;;;3.80;97.70;;;;;;6246212;22;20197;-86
2021/12/26 09:35:04;;;;;;;9.50;8.17;;;3.90;98.00;;;;;;6245449;23;20199;-86
2021/12/26 09:37:31;;;;;;;9.67;7.93;;;3.90;98.10;;;;;;6245726;22;20719;-88
2021/12/26 09:39:58;;;;;;;8.77;7.50;;;4.00;98.20;;;;;;6246676;23;20252;-86
2021/12/26 09:42:28;;;;;;;8.70;7.03;;;4.00;97.90;;;;;;6246409;22;20219;-85
2021/12/26 09:44:58;;;;;;;9.33;7.83;;;4.10;98.00;;;;;;6250120;23;20165;-87
2021/12/26 09:47:25;;;;;;;8.40;7.23;;;4.10;98.10;;;;;;6248904;22;20208;-87
2021/12/26 09:49:53;;;;;;;8.53;6.97;;;4.30;98.00;;;;;;6246746;23;20248;-86
2021/12/26 09:52:20;;;;;;;9.10;7.57;;;4.30;97.90;;;;;;6218447;23;20772;-86
2021/12/26 09:54:47;;;;;;;9.07;7.33;;;4.20;97.50;;;;;;6245028;23;20200;-86
2021/12/26 09:57:14;;;;;;;10.67;7.20;;;4.20;97.50;;;;;;6244335;22;20623;-85
2021/12/26 09:59:47;;;;;;;9.27;7.87;;;4.20;97.50;;;;;;6244981;23;20588;-87
2021/12/26 10:02:16;;;;;;;9.30;7.93;;;4.30;97.60;;;;;;6245052;22;20535;-88
2021/12/26 10:04:44;;;;;;;23.47;17.17;;;4.40;98.00;;;;;;6245110;23;20169;-87
2021/12/26 10:07:14;;;;;;;9.93;8.43;;;5.00;99.90;;;;;;6244476;22;20201;-90
2021/12/26 10:09:43;;;;;;;9.03;7.80;;;6.10;95.30;;;;;;6246351;23;20225;-87
2021/12/26 10:12:14;;;;;;;8.27;7.37;;;6.20;93.80;;;;;;6244692;22;20204;-86
2021/12/26 10:14:44;;;;;;;7.27;6.13;;;6.50;94.00;;;;;;6245053;23;20161;-90
2021/12/26 10:17:14;;;;;;;7.13;6.20;;;7.10;93.00;;;;;;6218153;23;20208;-89
2021/12/26 10:19:44;;;;;;;7.37;6.17;;;8.10;85.90;;;;;;6247731;23;20228;-88
2021/12/26 10:22:12;;;;;;;7.03;6.33;;;8.20;87.90;;;;;;6245597;22;20197;-88
2021/12/26 10:24:42;;;;;;;6.97;6.27;;;7.60;84.50;;;;;;6248586;23;20605;-90
2021/12/26 10:27:11;;;;;;;11.97;5.90;;;7.10;90.10;;;;;;6248017;22;20268;-89
2021/12/26 10:29:43;;;;;;;8.40;6.27;;;7.40;90.10;;;;;;6249988;23;20196;-88
2021/12/26 10:32:14;;;;;;;6.60;5.90;;;7.30;90.50;;;;;;6221712;23;20266;-90
2021/12/26 10:34:44;;;;;;;6.57;5.87;;;7.70;90.20;;;;;;6248439;23;20175;-87
2021/12/26 10:37:14;;;;;;;7.07;6.37;;;7.90;86.00;;;;;;6221805;23;20205;-88
2021/12/26 10:39:44;;;;;;;9.67;5.83;;;7.60;89.20;;;;;;6248225;23;20256;-88
2021/12/26 10:42:16;;;;;;;6.65;5.95;;;7.50;90.10;;;;;;6246382;22;20201;-88
2021/12/26 10:44:46;;;;;;;7.80;6.40;;;8.10;87.90;;;;;;6221318;23;20244;-88
2021/12/26 10:47:16;;;;;;;7.37;6.43;;;7.80;88.60;;;;;;6248081;22;20205;-89
2021/12/26 10:49:51;;;;;;;6.60;5.97;;;8.00;90.30;;;;;;6248389;23;20181;-88
2021/12/26 10:52:25;;;;;;;6.95;6.13;;;8.00;90.30;;;;;;6248033;22;20199;-89
2021/12/26 10:54:57;;;;;;;6.85;6.15;;;8.30;87.10;;;;;;6250321;23;20540;-89
2021/12/26 10:57:29;;;;;;;7.63;6.22;;;7.80;88.70;;;;;;6252327;22;20196;-89
2021/12/26 11:00:04;;;;;;;8.02;6.10;;;8.20;87.40;;;;;;6251994;23;20589;-88
2021/12/26 11:02:34;;;;;;;7.75;6.40;;;7.80;90.20;;;;;;6250224;22;20303;-88
2021/12/26 11:05:10;;;;;;;7.78;6.65;;;7.30;90.10;;;;;;6252152;23;20165;-88
2021/12/26 11:07:53;;;;;;;7.93;6.47;;;7.10;91.60;;;;;;6251756;22;20660;-87
2021/12/26 11:10:24;;;;;;;7.72;6.50;;;6.90;91.80;;;;;;6226161;23;20173;-88
2021/12/26 11:12:55;;;;;;;10.23;7.03;;;6.80;92.60;;;;;;6251284;22;20201;-88
2021/12/26 11:15:24;;;;;;;7.77;6.93;;;6.80;93.10;;;;;;6253364;23;20170;-88
2021/12/26 11:17:58;;;;;;;7.87;7.07;;;6.80;92.80;;;;;;6251703;22;20208;-87
2021/12/26 11:20:30;;;;;;;7.55;6.32;;;6.70;93.00;;;;;;6253162;23;20175;-87
2021/12/26 11:23:00;;;;;;;9.80;6.73;;;6.70;93.40;;;;;;6251098;22;20205;-89
2021/12/26 11:25:30;;;;;;;7.17;6.33;;;6.70;92.80;;;;;;6224470;23;20177;-88
2021/12/26 11:28:01;;;;;;;7.33;6.50;;;6.40;93.10;;;;;;6249189;22;20722;-88
2021/12/26 11:30:29;;;;;;;9.13;6.87;;;6.40;93.90;;;;;;6251593;23;20173;-88
2021/12/26 11:33:02;;;;;;;10.07;7.33;;;6.50;94.40;;;;;;6249544;22;20205;-89
2021/12/26 11:35:33;;;;;;;8.13;6.70;;;6.60;94.60;;;;;;6224052;23;20173;-88
2021/12/26 11:38:02;;;;;;;9.93;7.27;;;6.60;94.60;;;;;;6251158;22;20254;-88
2021/12/26 11:40:30;;;;;;;10.07;7.50;;;6.60;94.90;;;;;;6252020;23;20162;-90
2021/12/26 11:43:49;;;;;;;8.63;7.33;;;6.70;95.00;;;;;;6251755;22;20271;-87
2021/12/26 11:46:25;;;;;;;8.47;6.93;;;6.50;94.60;;;;;;6253889;23;20165;-87
2021/12/26 11:49:26;;;;;;;8.93;7.20;;;6.60;94.60;;;;;;6249158;22;20204;-89
2021/12/26 11:52:06;;;;;;;10.17;7.53;;;6.60;94.70;;;;;;6248265;22;20460;-86
2021/12/26 11:54:59;;;;;;;8.20;7.23;;;6.30;95.10;;;;;;6251132;23;20165;-89
2021/12/26 11:58:04;;;;;;;8.97;7.50;;;6.30;95.40;;;;;;6248615;22;20287;-89
2021/12/26 12:00:35;;;;;;;9.03;7.53;;;6.20;95.80;;;;;;6216102;23;20251;-87
2021/12/26 12:03:07;;;;;;;9.87;7.77;;;6.10;96.10;;;;;;6251313;22;20201;-87
2021/12/26 12:05:40;;;;;;;9.10;7.60;;;6.00;96.10;;;;;;6252567;23;20216;-87
2021/12/26 12:08:11;;;;;;;8.53;7.63;;;6.00;96.40;;;;;;6251508;22;20231;-87
2021/12/26 12:10:44;;;;;;;9.80;8.33;;;5.90;96.70;;;;;;6225498;23;20204;-87
2021/12/26 12:13:15;;;;;;;8.67;7.67;;;5.80;97.20;;;;;;6251403;22;20283;-87
2021/12/26 12:16:01;;;;;;;10.67;8.00;;;5.80;97.30;;;;;;6251780;23;20164;-88
2021/12/26 12:18:30;;;;;;;10.80;8.33;;;5.80;97.40;;;;;;6251996;22;20231;-87
2021/12/26 12:21:12;;;;;;;9.20;7.97;;;5.80;97.30;;;;;;6224767;23;20174;-87
2021/12/26 12:24:04;;;;;;;8.70;7.67;;;5.80;97.30;;;;;;6250626;22;20197;-87
2021/12/26 12:27:05;;;;;;;9.90;7.80;;;5.80;97.30;;;;;;6224952;23;20184;-88
2021/12/26 12:29:47;;;;;;;8.37;7.47;;;5.90;97.40;;;;;;6251580;23;20217;-88
2021/12/26 12:32:15;;;;;;;9.33;7.53;;;5.80;97.30;;;;;;6251942;22;20200;-88
2021/12/26 12:34:48;;;;;;;9.23;7.63;;;5.90;97.50;;;;;;6225580;23;20611;-86
2021/12/26 12:37:34;;;;;;;8.73;7.77;;;5.90;97.30;;;;;;6251860;22;20204;-88
2021/12/26 12:40:29;;;;;;;9.23;8.07;;;6.00;97.30;;;;;;6249073;23;20187;-87
2021/12/26 12:43:03;;;;;;;9.03;7.53;;;5.90;97.90;;;;;;6225262;22;20211;-87
2021/12/26 12:45:31;;;;;;;10.27;7.30;;;6.10;97.90;;;;;;6226150;23;20240;-87
2021/12/26 12:48:23;;;;;;;8.20;7.13;;;6.20;97.70;;;;;;6250742;22;20264;-87
2021/12/26 12:50:50;;;;;;;8.87;7.53;;;6.30;97.00;;;;;;6219878;23;20181;-88
2021/12/26 12:53:41;;;;;;;8.90;6.53;;;6.30;96.70;;;;;;6223271;23;20254;-89
2021/12/26 12:56:33;;;;;;;8.60;6.80;;;6.20;96.90;;;;;;6252076;23;20158;-87
2021/12/26 12:59:35;;;;;;;7.20;6.50;;;6.20;97.30;;;;;;6250590;23;20181;-89